Rawdon, Canada
Current Conditions -  °F | °C
As of 2:00 PM on Monday 22 Dec 2014 (Local Time) from CYMX Reporting Station
Light Snow Light Snow  
Wind Chill:   Ceiling: 700
Heat Index: 18°   Visibility: 6mi
Dew Point: 14°   Wind: 9mph
Humidity: 86%   Direction: 60°ENE
Pressure: 30.34"   Gusts: NA
Location:  46.03°N, 73.7°W
Report Text: CYMX 221900Z 06008KT 6SM -SN OVC007 M08/M10 A3034 RMK ST8 SLP281
Loading
Personal Weather Stations






























Interactive Weather Map New forecast layout! Learn more

10-Day Weather Forecast

Advertisements
Track Severe Weather on mobile